sensor_id;sensor_type;location;lat;lon;timestamp;temperature;humidity
12520;DHT22;6325;49.540;8.364;2023-02-22T00:01:41;6.20;99.90
12520;DHT22;6325;49.540;8.364;2023-02-22T00:04:15;5.40;99.90
12520;DHT22;6325;49.540;8.364;2023-02-22T00:06:46;5.70;99.90
12520;DHT22;6325;49.540;8.364;2023-02-22T00:09:13;5.80;99.90
12520;DHT22;6325;49.540;8.364;2023-02-22T00:11:47;6.10;99.90
12520;DHT22;6325;49.540;8.364;2023-02-22T00:14:14;5.70;99.90
12520;DHT22;6325;49.540;8.364;2023-02-22T00:16:44;5.70;99.90
12520;DHT22;6325;49.540;8.364;2023-02-22T00:19:11;5.60;99.90
12520;DHT22;6325;49.540;8.364;2023-02-22T00:21:38;5.90;99.90
12520;DHT22;6325;49.540;8.364;2023-02-22T00:24:05;5.50;99.90
12520;DHT22;6325;49.540;8.364;2023-02-22T00:26:49;5.80;99.90
12520;DHT22;6325;49.540;8.364;2023-02-22T00:29:16;5.60;99.90
12520;DHT22;6325;49.540;8.364;2023-02-22T00:31:43;5.70;99.90
12520;DHT22;6325;49.540;8.364;2023-02-22T00:34:09;5.50;99.90
12520;DHT22;6325;49.540;8.364;2023-02-22T00:36:36;5.40;99.90
12520;DHT22;6325;49.540;8.364;2023-02-22T00:39:03;6.00;99.90
12520;DHT22;6325;49.540;8.364;2023-02-22T00:41:32;6.20;99.90
12520;DHT22;6325;49.540;8.364;2023-02-22T00:44:00;5.60;99.90
12520;DHT22;6325;49.540;8.364;2023-02-22T00:46:27;5.40;99.90
12520;DHT22;6325;49.540;8.364;2023-02-22T00:48:53;5.60;99.90
12520;DHT22;6325;49.540;8.364;2023-02-22T00:51:21;5.30;99.90
12520;DHT22;6325;49.540;8.364;2023-02-22T00:53:50;5.50;99.90
12520;DHT22;6325;49.540;8.364;2023-02-22T00:56:17;5.50;99.90
12520;DHT22;6325;49.540;8.364;2023-02-22T00:58:44;5.60;99.90
12520;DHT22;6325;49.540;8.364;2023-02-22T01:01:12;5.20;99.90
12520;DHT22;6325;49.540;8.364;2023-02-22T01:03:39;5.20;99.90
12520;DHT22;6325;49.540;8.364;2023-02-22T01:06:06;5.40;99.90
12520;DHT22;6325;49.540;8.364;2023-02-22T01:08:33;5.90;99.90
12520;DHT22;6325;49.540;8.364;2023-02-22T01:11:00;4.80;99.90
12520;DHT22;6325;49.540;8.364;2023-02-22T01:13:27;5.90;99.90
12520;DHT22;6325;49.540;8.364;2023-02-22T01:15:54;5.10;99.90
12520;DHT22;6325;49.540;8.364;2023-02-22T01:18:22;5.20;99.90
12520;DHT22;6325;49.540;8.364;2023-02-22T01:20:50;5.20;99.90
12520;DHT22;6325;49.540;8.364;2023-02-22T01:23:17;5.40;99.90
12520;DHT22;6325;49.540;8.364;2023-02-22T01:25:44;4.50;99.90
12520;DHT22;6325;49.540;8.364;2023-02-22T01:28:11;5.50;99.90
12520;DHT22;6325;49.540;8.364;2023-02-22T01:30:38;5.50;99.90
12520;DHT22;6325;49.540;8.364;2023-02-22T01:33:06;5.20;99.90
12520;DHT22;6325;49.540;8.364;2023-02-22T01:35:37;5.50;99.90
12520;DHT22;6325;49.540;8.364;2023-02-22T01:38:07;5.30;99.90
12520;DHT22;6325;49.540;8.364;2023-02-22T01:40:36;5.10;99.90
12520;DHT22;6325;49.540;8.364;2023-02-22T01:43:05;5.10;99.90
12520;DHT22;6325;49.540;8.364;2023-02-22T01:45:58;5.50;99.90
12520;DHT22;6325;49.540;8.364;2023-02-22T01:48:33;4.90;99.90
12520;DHT22;6325;49.540;8.364;2023-02-22T01:51:07;5.00;99.90
12520;DHT22;6325;49.540;8.364;2023-02-22T01:53:39;5.00;99.90
12520;DHT22;6325;49.540;8.364;2023-02-22T01:56:07;5.50;99.90
12520;DHT22;6325;49.540;8.364;2023-02-22T01:58:37;5.60;99.90
12520;DHT22;6325;49.540;8.364;2023-02-22T02:01:07;5.20;99.90
12520;DHT22;6325;49.540;8.364;2023-02-22T02:03:36;5.20;99.90
12520;DHT22;6325;49.540;8.364;2023-02-22T02:06:09;4.90;99.90
12520;DHT22;6325;49.540;8.364;2023-02-22T02:08:44;5.60;99.90
12520;DHT22;6325;49.540;8.364;2023-02-22T02:11:15;5.60;99.90
12520;DHT22;6325;49.540;8.364;2023-02-22T02:13:43;5.70;99.90
12520;DHT22;6325;49.540;8.364;2023-02-22T02:16:10;5.10;99.90
12520;DHT22;6325;49.540;8.364;2023-02-22T02:18:37;5.90;99.90
12520;DHT22;6325;49.540;8.364;2023-02-22T02:27:17;5.00;99.90
12520;DHT22;6325;49.540;8.364;2023-02-22T02:30:16;4.90;99.90
12520;DHT22;6325;49.540;8.364;2023-02-22T02:32:55;4.80;99.90
12520;DHT22;6325;49.540;8.364;2023-02-22T02:35:30;5.00;99.90
12520;DHT22;6325;49.540;8.364;2023-02-22T02:38:06;5.30;99.90
12520;DHT22;6325;49.540;8.364;2023-02-22T02:40:40;4.90;99.90
12520;DHT22;6325;49.540;8.364;2023-02-22T02:43:14;5.00;99.90
12520;DHT22;6325;49.540;8.364;2023-02-22T02:45:48;4.70;99.90
12520;DHT22;6325;49.540;8.364;2023-02-22T02:48:20;4.80;99.90
12520;DHT22;6325;49.540;8.364;2023-02-22T02:50:48;4.60;99.90
12520;DHT22;6325;49.540;8.364;2023-02-22T02:53:20;5.10;99.90
12520;DHT22;6325;49.540;8.364;2023-02-22T02:55:48;4.90;99.90
12520;DHT22;6325;49.540;8.364;2023-02-22T02:58:20;4.10;99.90
12520;DHT22;6325;49.540;8.364;2023-02-22T03:00:50;4.90;99.90
12520;DHT22;6325;49.540;8.364;2023-02-22T03:03:34;5.10;99.90
12520;DHT22;6325;49.540;8.364;2023-02-22T03:08:56;4.80;99.90
12520;DHT22;6325;49.540;8.364;2023-02-22T03:11:27;4.70;99.90
12520;DHT22;6325;49.540;8.364;2023-02-22T03:14:00;4.90;99.90
12520;DHT22;6325;49.540;8.364;2023-02-22T03:16:32;4.70;99.90
12520;DHT22;6325;49.540;8.364;2023-02-22T03:19:07;5.00;99.90
12520;DHT22;6325;49.540;8.364;2023-02-22T03:21:43;4.60;99.90
12520;DHT22;6325;49.540;8.364;2023-02-22T03:24:16;4.80;99.90
12520;DHT22;6325;49.540;8.364;2023-02-22T03:26:49;4.50;99.90
12520;DHT22;6325;49.540;8.364;2023-02-22T03:29:20;5.30;99.90
12520;DHT22;6325;49.540;8.364;2023-02-22T03:31:52;4.50;99.90
12520;DHT22;6325;49.540;8.364;2023-02-22T03:34:25;4.30;99.90
12520;DHT22;6325;49.540;8.364;2023-02-22T03:36:56;4.50;99.90
12520;DHT22;6325;49.540;8.364;2023-02-22T03:39:25;4.40;99.90
12520;DHT22;6325;49.540;8.364;2023-02-22T03:42:00;5.00;99.90
12520;DHT22;6325;49.540;8.364;2023-02-22T03:44:30;4.40;99.90
12520;DHT22;6325;49.540;8.364;2023-02-22T03:47:06;4.30;99.90
12520;DHT22;6325;49.540;8.364;2023-02-22T03:49:36;4.50;99.90
12520;DHT22;6325;49.540;8.364;2023-02-22T03:52:06;4.70;99.90
12520;DHT22;6325;49.540;8.364;2023-02-22T03:54:33;4.50;99.90
12520;DHT22;6325;49.540;8.364;2023-02-22T03:57:04;4.50;99.90
12520;DHT22;6325;49.540;8.364;2023-02-22T03:59:32;4.40;99.90
12520;DHT22;6325;49.540;8.364;2023-02-22T04:01:59;4.60;99.90
12520;DHT22;6325;49.540;8.364;2023-02-22T04:04:26;3.70;99.90
12520;DHT22;6325;49.540;8.364;2023-02-22T04:06:54;4.60;99.90
12520;DHT22;6325;49.540;8.364;2023-02-22T04:09:21;4.30;99.90
12520;DHT22;6325;49.540;8.364;2023-02-22T04:11:48;4.70;99.90
12520;DHT22;6325;49.540;8.364;2023-02-22T04:14:15;4.30;99.90
12520;DHT22;6325;49.540;8.364;2023-02-22T04:16:42;4.00;99.90
12520;DHT22;6325;49.540;8.364;2023-02-22T04:19:09;4.30;99.90
12520;DHT22;6325;49.540;8.364;2023-02-22T04:21:36;4.30;99.90
12520;DHT22;6325;49.540;8.364;2023-02-22T04:24:05;4.20;99.90
12520;DHT22;6325;49.540;8.364;2023-02-22T04:26:32;4.30;99.90
12520;DHT22;6325;49.540;8.364;2023-02-22T04:28:59;4.50;99.90
12520;DHT22;6325;49.540;8.364;2023-02-22T04:31:26;3.80;99.90
12520;DHT22;6325;49.540;8.364;2023-02-22T04:33:52;4.60;99.90
12520;DHT22;6325;49.540;8.364;2023-02-22T04:36:19;3.70;99.90
12520;DHT22;6325;49.540;8.364;2023-02-22T04:38:47;4.40;99.90
12520;DHT22;6325;49.540;8.364;2023-02-22T04:41:16;4.70;99.90
12520;DHT22;6325;49.540;8.364;2023-02-22T04:43:43;4.70;99.90
12520;DHT22;6325;49.540;8.364;2023-02-22T04:46:11;4.10;99.90
12520;DHT22;6325;49.540;8.364;2023-02-22T04:48:38;4.60;99.90
12520;DHT22;6325;49.540;8.364;2023-02-22T04:51:05;4.30;99.90
12520;DHT22;6325;49.540;8.364;2023-02-22T04:53:33;4.60;99.90
12520;DHT22;6325;49.540;8.364;2023-02-22T04:56:00;4.10;99.90
12520;DHT22;6325;49.540;8.364;2023-02-22T04:58:28;4.50;99.90
12520;DHT22;6325;49.540;8.364;2023-02-22T05:00:56;4.50;99.90
12520;DHT22;6325;49.540;8.364;2023-02-22T05:03:23;3.70;99.90
12520;DHT22;6325;49.540;8.364;2023-02-22T05:05:50;3.80;99.90
12520;DHT22;6325;49.540;8.364;2023-02-22T05:08:17;4.10;99.90
12520;DHT22;6325;49.540;8.364;2023-02-22T05:10:44;4.10;99.90
12520;DHT22;6325;49.540;8.364;2023-02-22T05:13:11;4.90;99.90
12520;DHT22;6325;49.540;8.364;2023-02-22T05:15:39;3.70;99.90
12520;DHT22;6325;49.540;8.364;2023-02-22T05:18:06;4.70;99.90
12520;DHT22;6325;49.540;8.364;2023-02-22T05:20:34;3.80;99.90
12520;DHT22;6325;49.540;8.364;2023-02-22T05:23:02;4.20;99.90
12520;DHT22;6325;49.540;8.364;2023-02-22T05:25:30;4.70;99.90
12520;DHT22;6325;49.540;8.364;2023-02-22T05:27:59;4.50;99.90
12520;DHT22;6325;49.540;8.364;2023-02-22T05:30:28;4.20;99.90
12520;DHT22;6325;49.540;8.364;2023-02-22T05:32:56;4.30;99.90
12520;DHT22;6325;49.540;8.364;2023-02-22T05:35:24;4.40;99.90
12520;DHT22;6325;49.540;8.364;2023-02-22T05:37:52;4.10;99.90
12520;DHT22;6325;49.540;8.364;2023-02-22T05:40:20;4.50;99.90
12520;DHT22;6325;49.540;8.364;2023-02-22T05:42:48;4.30;99.90
12520;DHT22;6325;49.540;8.364;2023-02-22T05:45:16;4.10;99.90
12520;DHT22;6325;49.540;8.364;2023-02-22T05:47:44;4.10;99.90
12520;DHT22;6325;49.540;8.364;2023-02-22T05:50:13;3.90;99.90
12520;DHT22;6325;49.540;8.364;2023-02-22T05:52:40;3.70;99.90
12520;DHT22;6325;49.540;8.364;2023-02-22T05:55:08;4.70;99.90
12520;DHT22;6325;49.540;8.364;2023-02-22T05:57:35;4.20;99.90
12520;DHT22;6325;49.540;8.364;2023-02-22T06:00:03;4.40;99.90
12520;DHT22;6325;49.540;8.364;2023-02-22T06:02:31;4.10;99.90
12520;DHT22;6325;49.540;8.364;2023-02-22T06:04:58;4.30;99.90
12520;DHT22;6325;49.540;8.364;2023-02-22T06:07:26;4.00;99.90
12520;DHT22;6325;49.540;8.364;2023-02-22T06:09:53;4.10;99.90
12520;DHT22;6325;49.540;8.364;2023-02-22T06:12:21;4.40;99.90
12520;DHT22;6325;49.540;8.364;2023-02-22T06:14:48;4.10;99.90
12520;DHT22;6325;49.540;8.364;2023-02-22T06:17:15;4.10;99.90
12520;DHT22;6325;49.540;8.364;2023-02-22T06:19:41;4.40;99.90
12520;DHT22;6325;49.540;8.364;2023-02-22T06:22:15;4.20;99.90
12520;DHT22;6325;49.540;8.364;2023-02-22T06:24:44;4.60;99.90
12520;DHT22;6325;49.540;8.364;2023-02-22T06:27:10;4.30;99.90
12520;DHT22;6325;49.540;8.364;2023-02-22T06:29:37;3.90;99.90
12520;DHT22;6325;49.540;8.364;2023-02-22T06:32:04;4.70;99.90
12520;DHT22;6325;49.540;8.364;2023-02-22T06:34:31;4.60;99.90
12520;DHT22;6325;49.540;8.364;2023-02-22T06:36:58;3.80;99.90
12520;DHT22;6325;49.540;8.364;2023-02-22T06:39:25;4.10;99.90
12520;DHT22;6325;49.540;8.364;2023-02-22T06:41:53;3.50;99.90
12520;DHT22;6325;49.540;8.364;2023-02-22T06:44:22;4.10;99.90
12520;DHT22;6325;49.540;8.364;2023-02-22T06:46:50;4.40;99.90
12520;DHT22;6325;49.540;8.364;2023-02-22T06:49:17;3.60;99.90
12520;DHT22;6325;49.540;8.364;2023-02-22T06:51:44;4.30;99.90
12520;DHT22;6325;49.540;8.364;2023-02-22T06:54:13;4.70;99.90
12520;DHT22;6325;49.540;8.364;2023-02-22T06:56:40;4.30;99.90
12520;DHT22;6325;49.540;8.364;2023-02-22T06:59:10;4.70;99.90
12520;DHT22;6325;49.540;8.364;2023-02-22T07:01:39;4.10;99.90
12520;DHT22;6325;49.540;8.364;2023-02-22T07:04:06;4.40;99.90
12520;DHT22;6325;49.540;8.364;2023-02-22T07:06:33;3.80;99.90
12520;DHT22;6325;49.540;8.364;2023-02-22T07:09:01;5.00;99.90
12520;DHT22;6325;49.540;8.364;2023-02-22T07:11:28;4.10;99.90
12520;DHT22;6325;49.540;8.364;2023-02-22T07:13:54;4.20;99.90
12520;DHT22;6325;49.540;8.364;2023-02-22T07:16:22;5.10;99.90
12520;DHT22;6325;49.540;8.364;2023-02-22T07:18:49;4.10;99.90
12520;DHT22;6325;49.540;8.364;2023-02-22T07:21:16;4.60;99.90
12520;DHT22;6325;49.540;8.364;2023-02-22T07:23:50;5.30;99.90
12520;DHT22;6325;49.540;8.364;2023-02-22T07:26:17;4.80;99.90
12520;DHT22;6325;49.540;8.364;2023-02-22T07:28:44;4.60;99.90
12520;DHT22;6325;49.540;8.364;2023-02-22T07:31:11;4.90;99.90
12520;DHT22;6325;49.540;8.364;2023-02-22T07:33:40;4.60;99.90
12520;DHT22;6325;49.540;8.364;2023-02-22T07:36:07;5.50;99.90
12520;DHT22;6325;49.540;8.364;2023-02-22T07:38:34;5.00;99.90
12520;DHT22;6325;49.540;8.364;2023-02-22T07:41:01;5.10;99.90
12520;DHT22;6325;49.540;8.364;2023-02-22T07:43:28;5.50;99.90
12520;DHT22;6325;49.540;8.364;2023-02-22T07:45:57;5.20;99.90
12520;DHT22;6325;49.540;8.364;2023-02-22T07:48:26;5.40;99.90
12520;DHT22;6325;49.540;8.364;2023-02-22T07:50:56;5.80;99.90
12520;DHT22;6325;49.540;8.364;2023-02-22T07:53:25;4.80;99.90
12520;DHT22;6325;49.540;8.364;2023-02-22T07:55:55;5.30;99.90
12520;DHT22;6325;49.540;8.364;2023-02-22T07:58:24;5.50;99.90
12520;DHT22;6325;49.540;8.364;2023-02-22T08:00:51;5.50;99.90
12520;DHT22;6325;49.540;8.364;2023-02-22T08:03:19;5.90;99.90
12520;DHT22;6325;49.540;8.364;2023-02-22T08:05:49;6.00;99.90
12520;DHT22;6325;49.540;8.364;2023-02-22T08:08:18;5.40;99.90
12520;DHT22;6325;49.540;8.364;2023-02-22T08:10:46;5.90;99.90
12520;DHT22;6325;49.540;8.364;2023-02-22T08:13:13;6.00;99.90
12520;DHT22;6325;49.540;8.364;2023-02-22T08:15:41;5.60;99.90
12520;DHT22;6325;49.540;8.364;2023-02-22T08:18:10;6.00;99.90
12520;DHT22;6325;49.540;8.364;2023-02-22T08:20:39;6.40;99.90
12520;DHT22;6325;49.540;8.364;2023-02-22T08:23:07;7.30;99.90
12520;DHT22;6325;49.540;8.364;2023-02-22T08:25:35;6.10;99.90
12520;DHT22;6325;49.540;8.364;2023-02-22T08:28:04;6.60;99.90
12520;DHT22;6325;49.540;8.364;2023-02-22T08:30:32;6.70;99.90
12520;DHT22;6325;49.540;8.364;2023-02-22T08:33:00;7.00;99.90
12520;DHT22;6325;49.540;8.364;2023-02-22T08:35:28;7.40;99.90
12520;DHT22;6325;49.540;8.364;2023-02-22T08:37:58;7.40;99.90
12520;DHT22;6325;49.540;8.364;2023-02-22T08:40:28;8.10;99.90
12520;DHT22;6325;49.540;8.364;2023-02-22T08:42:58;7.30;99.90
12520;DHT22;6325;49.540;8.364;2023-02-22T08:45:26;7.70;99.90
12520;DHT22;6325;49.540;8.364;2023-02-22T08:47:53;8.30;99.90
12520;DHT22;6325;49.540;8.364;2023-02-22T08:50:22;7.20;99.90
12520;DHT22;6325;49.540;8.364;2023-02-22T08:52:50;8.30;99.90
12520;DHT22;6325;49.540;8.364;2023-02-22T08:55:19;8.00;99.90
12520;DHT22;6325;49.540;8.364;2023-02-22T08:57:46;7.50;99.90
12520;DHT22;6325;49.540;8.364;2023-02-22T09:00:15;8.30;99.90
12520;DHT22;6325;49.540;8.364;2023-02-22T09:02:43;8.30;99.90
12520;DHT22;6325;49.540;8.364;2023-02-22T09:05:11;8.70;99.90
12520;DHT22;6325;49.540;8.364;2023-02-22T09:07:40;7.90;99.90
12520;DHT22;6325;49.540;8.364;2023-02-22T09:10:09;9.00;99.90
12520;DHT22;6325;49.540;8.364;2023-02-22T09:12:37;9.00;99.90
12520;DHT22;6325;49.540;8.364;2023-02-22T09:15:04;9.40;99.90
12520;DHT22;6325;49.540;8.364;2023-02-22T09:17:32;9.20;99.90
12520;DHT22;6325;49.540;8.364;2023-02-22T09:20:01;9.50;99.90
12520;DHT22;6325;49.540;8.364;2023-02-22T09:22:28;9.40;99.90
12520;DHT22;6325;49.540;8.364;2023-02-22T09:24:55;9.40;99.90
12520;DHT22;6325;49.540;8.364;2023-02-22T09:27:22;9.50;99.90
12520;DHT22;6325;49.540;8.364;2023-02-22T09:29:52;9.90;99.90
12520;DHT22;6325;49.540;8.364;2023-02-22T09:32:19;9.20;99.90
12520;DHT22;6325;49.540;8.364;2023-02-22T09:34:47;9.60;99.90
12520;DHT22;6325;49.540;8.364;2023-02-22T09:37:14;10.00;99.90
12520;DHT22;6325;49.540;8.364;2023-02-22T09:39:42;9.10;99.90
12520;DHT22;6325;49.540;8.364;2023-02-22T09:42:14;10.20;99.90
12520;DHT22;6325;49.540;8.364;2023-02-22T09:44:47;9.40;99.90
12520;DHT22;6325;49.540;8.364;2023-02-22T09:47:18;9.80;99.90
12520;DHT22;6325;49.540;8.364;2023-02-22T09:49:55;9.90;99.90
12520;DHT22;6325;49.540;8.364;2023-02-22T09:52:26;9.60;99.90
12520;DHT22;6325;49.540;8.364;2023-02-22T09:55:01;9.90;99.90
12520;DHT22;6325;49.540;8.364;2023-02-22T09:57:34;10.00;99.90
12520;DHT22;6325;49.540;8.364;2023-02-22T10:00:06;10.00;99.90
12520;DHT22;6325;49.540;8.364;2023-02-22T10:02:45;10.10;99.90
12520;DHT22;6325;49.540;8.364;2023-02-22T10:05:20;10.10;99.90
12520;DHT22;6325;49.540;8.364;2023-02-22T10:07:53;10.20;99.90
12520;DHT22;6325;49.540;8.364;2023-02-22T10:10:27;10.20;99.90
12520;DHT22;6325;49.540;8.364;2023-02-22T10:13:02;10.40;99.90
12520;DHT22;6325;49.540;8.364;2023-02-22T10:15:41;10.70;99.90
12520;DHT22;6325;49.540;8.364;2023-02-22T10:18:38;11.10;99.90
12520;DHT22;6325;49.540;8.364;2023-02-22T10:21:15;10.50;99.90
12520;DHT22;6325;49.540;8.364;2023-02-22T10:23:50;10.70;99.90
12520;DHT22;6325;49.540;8.364;2023-02-22T10:26:24;11.00;99.90
12520;DHT22;6325;49.540;8.364;2023-02-22T10:28:53;11.30;99.90
12520;DHT22;6325;49.540;8.364;2023-02-22T10:31:27;11.40;99.90
12520;DHT22;6325;49.540;8.364;2023-02-22T10:33:58;11.40;99.90
12520;DHT22;6325;49.540;8.364;2023-02-22T10:36:27;11.30;99.90
12520;DHT22;6325;49.540;8.364;2023-02-22T10:38:58;11.10;99.90
12520;DHT22;6325;49.540;8.364;2023-02-22T10:41:30;11.20;99.90
12520;DHT22;6325;49.540;8.364;2023-02-22T10:43:57;12.30;99.90
12520;DHT22;6325;49.540;8.364;2023-02-22T10:46:29;12.20;99.90
12520;DHT22;6325;49.540;8.364;2023-02-22T10:49:01;11.70;99.90
12520;DHT22;6325;49.540;8.364;2023-02-22T10:51:33;11.90;99.90
12520;DHT22;6325;49.540;8.364;2023-02-22T10:54:18;12.00;99.90
12520;DHT22;6325;49.540;8.364;2023-02-22T10:56:47;12.10;99.90
12520;DHT22;6325;49.540;8.364;2023-02-22T10:59:26;11.90;99.90
12520;DHT22;6325;49.540;8.364;2023-02-22T11:01:53;12.60;99.90
12520;DHT22;6325;49.540;8.364;2023-02-22T11:04:21;12.40;99.90
12520;DHT22;6325;49.540;8.364;2023-02-22T11:07:12;12.80;99.90
12520;DHT22;6325;49.540;8.364;2023-02-22T11:09:46;12.10;99.90
12520;DHT22;6325;49.540;8.364;2023-02-22T11:12:18;13.00;99.90
12520;DHT22;6325;49.540;8.364;2023-02-22T11:14:46;12.90;99.90
12520;DHT22;6325;49.540;8.364;2023-02-22T11:17:17;12.80;99.90
12520;DHT22;6325;49.540;8.364;2023-02-22T11:19:46;13.50;99.90
12520;DHT22;6325;49.540;8.364;2023-02-22T11:22:21;12.80;99.90
12520;DHT22;6325;49.540;8.364;2023-02-22T11:24:51;13.20;99.90
12520;DHT22;6325;49.540;8.364;2023-02-22T11:27:32;13.50;99.90
12520;DHT22;6325;49.540;8.364;2023-02-22T11:30:25;13.00;99.90
12520;DHT22;6325;49.540;8.364;2023-02-22T11:32:55;13.20;99.90
12520;DHT22;6325;49.540;8.364;2023-02-22T11:35:36;13.60;99.90
12520;DHT22;6325;49.540;8.364;2023-02-22T11:38:14;13.40;99.90
12520;DHT22;6325;49.540;8.364;2023-02-22T11:40:43;13.90;99.90
12520;DHT22;6325;49.540;8.364;2023-02-22T11:43:15;13.70;99.90
12520;DHT22;6325;49.540;8.364;2023-02-22T11:45:58;13.90;99.90
12520;DHT22;6325;49.540;8.364;2023-02-22T11:48:28;14.00;99.90
12520;DHT22;6325;49.540;8.364;2023-02-22T11:51:18;14.20;99.90
12520;DHT22;6325;49.540;8.364;2023-02-22T11:54:09;14.10;99.90
12520;DHT22;6325;49.540;8.364;2023-02-22T11:56:41;14.40;99.90
12520;DHT22;6325;49.540;8.364;2023-02-22T11:59:20;14.70;99.90
12520;DHT22;6325;49.540;8.364;2023-02-22T12:01:53;14.50;99.90
12520;DHT22;6325;49.540;8.364;2023-02-22T12:04:49;14.50;99.90
12520;DHT22;6325;49.540;8.364;2023-02-22T12:07:28;14.70;99.90
12520;DHT22;6325;49.540;8.364;2023-02-22T12:10:05;14.90;99.90
12520;DHT22;6325;49.540;8.364;2023-02-22T12:12:42;14.90;99.90
12520;DHT22;6325;49.540;8.364;2023-02-22T12:15:16;15.00;99.90
12520;DHT22;6325;49.540;8.364;2023-02-22T12:17:51;14.60;99.90
12520;DHT22;6325;49.540;8.364;2023-02-22T12:20:26;15.60;99.90
12520;DHT22;6325;49.540;8.364;2023-02-22T12:23:02;15.70;99.90
12520;DHT22;6325;49.540;8.364;2023-02-22T12:25:34;15.80;99.90
12520;DHT22;6325;49.540;8.364;2023-02-22T12:28:14;15.20;99.90
12520;DHT22;6325;49.540;8.364;2023-02-22T12:30:45;15.30;99.90
12520;DHT22;6325;49.540;8.364;2023-02-22T12:33:19;16.30;99.90
12520;DHT22;6325;49.540;8.364;2023-02-22T12:35:51;16.00;99.90
12520;DHT22;6325;49.540;8.364;2023-02-22T12:38:22;16.60;99.90
12520;DHT22;6325;49.540;8.364;2023-02-22T12:40:55;17.00;99.90
12520;DHT22;6325;49.540;8.364;2023-02-22T12:43:26;16.80;99.90
12520;DHT22;6325;49.540;8.364;2023-02-22T12:45:59;17.30;99.90
12520;DHT22;6325;49.540;8.364;2023-02-22T12:48:39;16.80;99.90
12520;DHT22;6325;49.540;8.364;2023-02-22T12:51:18;16.90;99.90
12520;DHT22;6325;49.540;8.364;2023-02-22T12:53:53;17.30;99.90
12520;DHT22;6325;49.540;8.364;2023-02-22T12:56:27;17.60;99.90
12520;DHT22;6325;49.540;8.364;2023-02-22T12:58:58;17.40;99.90
12520;DHT22;6325;49.540;8.364;2023-02-22T13:01:31;17.60;99.90
12520;DHT22;6325;49.540;8.364;2023-02-22T13:03:59;17.40;99.90
12520;DHT22;6325;49.540;8.364;2023-02-22T13:06:41;17.30;99.90
12520;DHT22;6325;49.540;8.364;2023-02-22T13:09:32;17.30;99.90
12520;DHT22;6325;49.540;8.364;2023-02-22T13:12:08;16.70;99.90
12520;DHT22;6325;49.540;8.364;2023-02-22T13:14:51;17.20;99.90
12520;DHT22;6325;49.540;8.364;2023-02-22T13:17:23;17.10;99.90
12520;DHT22;6325;49.540;8.364;2023-02-22T13:19:58;16.70;99.90
12520;DHT22;6325;49.540;8.364;2023-02-22T13:22:34;16.10;99.90
12520;DHT22;6325;49.540;8.364;2023-02-22T13:25:07;17.20;99.90
12520;DHT22;6325;49.540;8.364;2023-02-22T13:27:42;16.70;99.90
12520;DHT22;6325;49.540;8.364;2023-02-22T13:30:18;17.50;99.90
12520;DHT22;6325;49.540;8.364;2023-02-22T13:33:11;17.60;99.90
12520;DHT22;6325;49.540;8.364;2023-02-22T13:35:53;17.20;99.90
12520;DHT22;6325;49.540;8.364;2023-02-22T13:38:47;18.00;99.90
12520;DHT22;6325;49.540;8.364;2023-02-22T13:41:48;17.80;99.90
12520;DHT22;6325;49.540;8.364;2023-02-22T13:47:49;17.80;99.90
12520;DHT22;6325;49.540;8.364;2023-02-22T13:50:29;18.20;99.90
12520;DHT22;6325;49.540;8.364;2023-02-22T13:53:02;17.90;99.90
12520;DHT22;6325;49.540;8.364;2023-02-22T13:55:32;17.80;99.90
12520;DHT22;6325;49.540;8.364;2023-02-22T13:58:02;17.30;99.90
12520;DHT22;6325;49.540;8.364;2023-02-22T14:00:41;17.40;99.90
12520;DHT22;6325;49.540;8.364;2023-02-22T14:03:30;17.20;99.90
12520;DHT22;6325;49.540;8.364;2023-02-22T14:06:02;17.10;99.90
12520;DHT22;6325;49.540;8.364;2023-02-22T14:08:42;16.80;99.90
12520;DHT22;6325;49.540;8.364;2023-02-22T14:11:43;17.20;99.90
12520;DHT22;6325;49.540;8.364;2023-02-22T14:14:16;16.50;99.90
12520;DHT22;6325;49.540;8.364;2023-02-22T14:16:43;16.20;99.90
12520;DHT22;6325;49.540;8.364;2023-02-22T14:19:19;16.70;99.90
12520;DHT22;6325;49.540;8.364;2023-02-22T14:21:57;16.50;99.90
12520;DHT22;6325;49.540;8.364;2023-02-22T14:24:27;16.70;99.90
12520;DHT22;6325;49.540;8.364;2023-02-22T14:26:58;16.40;99.90
12520;DHT22;6325;49.540;8.364;2023-02-22T14:29:26;16.40;99.90
12520;DHT22;6325;49.540;8.364;2023-02-22T14:32:00;16.30;99.90
12520;DHT22;6325;49.540;8.364;2023-02-22T14:34:43;16.30;99.90
12520;DHT22;6325;49.540;8.364;2023-02-22T14:37:13;16.20;99.90
12520;DHT22;6325;49.540;8.364;2023-02-22T14:39:44;15.80;99.90
12520;DHT22;6325;49.540;8.364;2023-02-22T14:42:16;16.20;99.90
12520;DHT22;6325;49.540;8.364;2023-02-22T14:44:53;16.10;99.90
12520;DHT22;6325;49.540;8.364;2023-02-22T14:47:26;16.00;99.90
12520;DHT22;6325;49.540;8.364;2023-02-22T14:50:00;16.20;99.90
12520;DHT22;6325;49.540;8.364;2023-02-22T14:52:32;15.50;99.90
12520;DHT22;6325;49.540;8.364;2023-02-22T14:55:15;16.60;99.90
12520;DHT22;6325;49.540;8.364;2023-02-22T14:57:50;16.20;99.90
12520;DHT22;6325;49.540;8.364;2023-02-22T15:00:22;16.40;99.90
12520;DHT22;6325;49.540;8.364;2023-02-22T15:02:56;16.00;99.90
12520;DHT22;6325;49.540;8.364;2023-02-22T15:05:28;16.10;99.90
12520;DHT22;6325;49.540;8.364;2023-02-22T15:07:58;16.00;99.90
12520;DHT22;6325;49.540;8.364;2023-02-22T15:10:28;16.00;99.90
12520;DHT22;6325;49.540;8.364;2023-02-22T15:12:58;16.00;99.90
12520;DHT22;6325;49.540;8.364;2023-02-22T15:15:36;16.20;99.90
12520;DHT22;6325;49.540;8.364;2023-02-22T15:18:06;15.90;99.90
12520;DHT22;6325;49.540;8.364;2023-02-22T15:20:38;16.40;99.90
12520;DHT22;6325;49.540;8.364;2023-02-22T15:23:06;16.00;99.90
12520;DHT22;6325;49.540;8.364;2023-02-22T15:25:34;16.00;99.90
12520;DHT22;6325;49.540;8.364;2023-02-22T15:28:04;16.10;99.90
12520;DHT22;6325;49.540;8.364;2023-02-22T15:30:34;16.20;99.90
12520;DHT22;6325;49.540;8.364;2023-02-22T15:33:19;16.30;99.90
12520;DHT22;6325;49.540;8.364;2023-02-22T15:35:54;16.10;99.90
12520;DHT22;6325;49.540;8.364;2023-02-22T15:38:27;16.20;99.90
12520;DHT22;6325;49.540;8.364;2023-02-22T15:41:02;16.00;99.90
12520;DHT22;6325;49.540;8.364;2023-02-22T15:43:29;16.00;99.90
12520;DHT22;6325;49.540;8.364;2023-02-22T15:45:58;15.90;99.90
12520;DHT22;6325;49.540;8.364;2023-02-22T15:48:25;16.00;99.90
12520;DHT22;6325;49.540;8.364;2023-02-22T15:51:04;16.00;99.90
12520;DHT22;6325;49.540;8.364;2023-02-22T15:53:45;16.00;99.90
12520;DHT22;6325;49.540;8.364;2023-02-22T15:56:15;16.40;99.90
12520;DHT22;6325;49.540;8.364;2023-02-22T15:58:44;15.80;99.90
12520;DHT22;6325;49.540;8.364;2023-02-22T16:01:16;15.70;99.90
12520;DHT22;6325;49.540;8.364;2023-02-22T16:03:46;15.50;99.90
12520;DHT22;6325;49.540;8.364;2023-02-22T16:06:26;15.30;99.90
12520;DHT22;6325;49.540;8.364;2023-02-22T16:08:55;15.30;99.90
12520;DHT22;6325;49.540;8.364;2023-02-22T16:11:25;15.20;99.90
12520;DHT22;6325;49.540;8.364;2023-02-22T16:13:56;15.70;99.90
12520;DHT22;6325;49.540;8.364;2023-02-22T16:16:28;15.10;99.90
12520;DHT22;6325;49.540;8.364;2023-02-22T16:19:23;14.90;99.90
12520;DHT22;6325;49.540;8.364;2023-02-22T16:21:54;14.70;99.90
12520;DHT22;6325;49.540;8.364;2023-02-22T16:24:26;14.60;99.90
12520;DHT22;6325;49.540;8.364;2023-02-22T16:27:16;14.80;99.90
12520;DHT22;6325;49.540;8.364;2023-02-22T16:29:43;14.60;99.90
12520;DHT22;6325;49.540;8.364;2023-02-22T16:32:11;14.60;99.90
12520;DHT22;6325;49.540;8.364;2023-02-22T16:34:40;14.50;99.90